Time;durP1;ratioP1;P1;durP2;ratioP2;P2;SDS_P1;SDS_P2;PMS_P1;PMS_P2;Temp;Humidity;BMP_temperature;BMP_pressure;BME280_temperature;BME280_humidity;BME280_pressure;Samples;Min_cycle;Max_cycle;Signal;HPM_P1;HPM_P2
2024/01/25 00:01:34;;;;;;;27.58;4.78;;;7.40;99.90;;;;;;5093710;28;20051;-62
2024/01/25 00:04:00;;;;;;;30.95;5.63;;;7.30;99.90;;;;;;5074800;28;20055;-62
2024/01/25 00:06:25;;;;;;;29.63;4.93;;;7.20;99.90;;;;;;5092676;28;20580;-62
2024/01/25 00:08:51;;;;;;;30.63;4.95;;;7.20;99.90;;;;;;5093238;28;20040;-61
2024/01/25 00:11:17;;;;;;;31.08;5.75;;;7.10;99.90;;;;;;5091929;28;20036;-62
2024/01/25 00:13:42;;;;;;;33.10;5.25;;;7.00;99.90;;;;;;5092519;28;20474;-62
2024/01/25 00:16:08;;;;;;;27.83;4.78;;;7.00;99.90;;;;;;5093339;28;20059;-62
2024/01/25 00:18:34;;;;;;;29.83;4.65;;;6.90;99.90;;;;;;5092377;28;20055;-62
2024/01/25 00:20:59;;;;;;;35.33;6.88;;;6.80;99.90;;;;;;5093183;28;20036;-62
2024/01/25 00:23:26;;;;;;;28.30;5.55;;;6.80;99.90;;;;;;5093329;28;20444;-62
2024/01/25 00:25:52;;;;;;;31.27;5.00;;;6.70;99.90;;;;;;5093146;28;20040;-61
2024/01/25 00:28:17;;;;;;;34.60;5.75;;;6.60;99.90;;;;;;5093217;28;20044;-62
2024/01/25 00:30:43;;;;;;;29.35;5.70;;;6.60;99.90;;;;;;5093056;28;20067;-61
2024/01/25 00:33:09;;;;;;;28.45;4.60;;;6.50;99.90;;;;;;5092969;28;20047;-62
2024/01/25 00:35:35;;;;;;;27.95;5.22;;;6.50;99.90;;;;;;5075036;28;20131;-62
2024/01/25 00:38:01;;;;;;;30.33;6.25;;;6.40;99.90;;;;;;5073616;28;20047;-62
2024/01/25 00:40:26;;;;;;;29.25;5.05;;;6.40;99.90;;;;;;5054987;28;20488;-62
2024/01/25 00:42:53;;;;;;;39.40;5.50;;;6.40;99.90;;;;;;5071304;28;20048;-62
2024/01/25 00:45:23;;;;;;;32.83;5.57;;;6.40;99.90;;;;;;5072598;28;20036;-62
2024/01/25 00:47:50;;;;;;;34.17;5.90;;;6.30;99.90;;;;;;5071427;28;20044;-62
2024/01/25 00:50:20;;;;;;;33.92;5.57;;;6.30;99.90;;;;;;5070882;28;20072;-62
2024/01/25 00:52:47;;;;;;;35.72;4.82;;;6.30;99.90;;;;;;5072500;28;20094;-62
2024/01/25 00:55:14;;;;;;;35.70;4.68;;;6.20;99.90;;;;;;5070945;28;20044;-62
2024/01/25 00:57:40;;;;;;;31.52;6.70;;;6.20;99.90;;;;;;5072570;28;20033;-61
2024/01/25 01:00:08;;;;;;;34.45;5.88;;;6.20;99.90;;;;;;5054428;28;20050;-62
2024/01/25 01:02:42;;;;;;;35.25;5.93;;;6.10;99.90;;;;;;5070279;28;20048;-62
2024/01/25 01:05:09;;;;;;;34.75;4.68;;;6.00;99.90;;;;;;5071054;28;20454;-61
2024/01/25 01:07:35;;;;;;;35.42;5.85;;;6.00;99.90;;;;;;5072195;28;20040;-62
2024/01/25 01:10:00;;;;;;;34.67;4.93;;;6.00;99.90;;;;;;5070365;28;20128;-61
2024/01/25 01:12:26;;;;;;;31.23;5.57;;;6.00;99.90;;;;;;5070802;28;20126;-62
2024/01/25 01:14:51;;;;;;;30.63;4.97;;;6.00;99.90;;;;;;5071153;28;20651;-61
2024/01/25 01:17:18;;;;;;;31.50;5.72;;;6.00;99.90;;;;;;5081225;28;20040;-62
2024/01/25 01:19:44;;;;;;;36.15;5.68;;;6.00;99.90;;;;;;5092207;28;20050;-61
2024/01/25 01:22:10;;;;;;;30.05;5.03;;;6.10;99.90;;;;;;5090607;28;20048;-61
2024/01/25 01:24:36;;;;;;;33.45;6.18;;;6.10;99.90;;;;;;5092299;28;20399;-62
2024/01/25 01:27:02;;;;;;;27.17;4.68;;;6.10;99.90;;;;;;5090913;28;20044;-61
2024/01/25 01:29:27;;;;;;;30.13;5.32;;;6.10;99.90;;;;;;5091844;28;20054;-62
2024/01/25 01:31:53;;;;;;;33.58;5.03;;;6.10;99.90;;;;;;5091900;28;20024;-62
2024/01/25 01:34:18;;;;;;;32.08;4.63;;;6.10;99.90;;;;;;5091975;28;20089;-61
2024/01/25 01:36:44;;;;;;;36.72;5.40;;;6.00;99.90;;;;;;5090613;28;20071;-62
2024/01/25 01:39:10;;;;;;;33.85;5.10;;;5.90;99.90;;;;;;5090317;28;20044;-61
2024/01/25 01:41:36;;;;;;;37.63;5.60;;;5.90;99.90;;;;;;5090379;28;20054;-61
2024/01/25 01:44:02;;;;;;;33.13;4.60;;;5.80;99.90;;;;;;5090894;28;20040;-62
2024/01/25 01:46:36;;;;;;;28.40;5.05;;;5.80;99.90;;;;;;5091307;28;20042;-62
2024/01/25 01:49:04;;;;;;;32.33;4.88;;;5.70;99.90;;;;;;5091731;28;20035;-62
2024/01/25 01:51:33;;;;;;;26.88;5.10;;;5.70;99.90;;;;;;5088587;28;20036;-62
2024/01/25 01:54:01;;;;;;;37.67;5.15;;;5.60;99.90;;;;;;5053633;28;20036;-62
2024/01/25 01:56:28;;;;;;;37.63;6.22;;;5.60;99.90;;;;;;5070997;28;20047;-62
2024/01/25 01:58:57;;;;;;;33.20;5.25;;;5.60;99.90;;;;;;5071144;28;20040;-62
2024/01/25 02:01:25;;;;;;;35.75;5.10;;;5.50;99.90;;;;;;5071244;28;20123;-62
2024/01/25 02:03:50;;;;;;;29.85;5.70;;;5.50;99.90;;;;;;5071421;28;20044;-62
2024/01/25 02:06:16;;;;;;;34.20;5.22;;;5.50;99.90;;;;;;5069700;28;20044;-62
2024/01/25 02:08:41;;;;;;;40.15;5.88;;;5.40;99.90;;;;;;5070933;28;20083;-61
2024/01/25 02:11:08;;;;;;;29.50;5.28;;;5.40;99.90;;;;;;5069833;28;20040;-61
2024/01/25 02:13:34;;;;;;;32.33;5.28;;;5.40;99.90;;;;;;5051961;28;20080;-61
2024/01/25 02:16:00;;;;;;;35.75;5.57;;;5.30;99.90;;;;;;5069187;28;20072;-62
2024/01/25 02:18:26;;;;;;;38.83;6.22;;;5.30;99.90;;;;;;5071019;28;20040;-61
2024/01/25 02:20:52;;;;;;;40.65;5.68;;;5.30;99.90;;;;;;5069760;28;20048;-62
2024/01/25 02:23:17;;;;;;;38.88;5.82;;;5.30;99.90;;;;;;5069730;28;20518;-62
2024/01/25 02:25:43;;;;;;;41.70;7.80;;;5.30;99.90;;;;;;5069363;28;20052;-62
2024/01/25 02:28:09;;;;;;;38.08;5.38;;;5.30;99.90;;;;;;5069689;28;20358;-62
2024/01/25 02:30:34;;;;;;;36.20;6.68;;;5.20;99.90;;;;;;5069066;28;20119;-62
2024/01/25 02:33:00;;;;;;;38.53;6.85;;;5.20;99.90;;;;;;5069535;28;20041;-62
2024/01/25 02:35:25;;;;;;;38.05;5.93;;;5.20;99.90;;;;;;5069211;28;20036;-62
2024/01/25 02:37:51;;;;;;;39.42;5.20;;;5.20;99.90;;;;;;5053015;28;20376;-62
2024/01/25 02:40:17;;;;;;;39.55;6.78;;;5.20;99.90;;;;;;5070622;28;20094;-62
2024/01/25 02:42:42;;;;;;;35.35;6.00;;;5.10;99.90;;;;;;5070445;28;20075;-62
2024/01/25 02:45:08;;;;;;;33.35;5.43;;;5.20;99.90;;;;;;5069755;28;20048;-62
2024/01/25 02:47:34;;;;;;;33.30;5.35;;;5.20;99.90;;;;;;5069095;28;20052;-62
2024/01/25 02:50:00;;;;;;;39.35;6.63;;;5.20;99.90;;;;;;5069240;28;20100;-62
2024/01/25 02:52:25;;;;;;;38.17;6.90;;;5.10;99.90;;;;;;5068894;28;20453;-62
2024/01/25 02:54:51;;;;;;;28.48;5.32;;;5.20;99.90;;;;;;5070583;28;20035;-62
2024/01/25 02:57:18;;;;;;;35.78;7.10;;;5.20;99.90;;;;;;5069209;28;20105;-61
2024/01/25 02:59:44;;;;;;;43.40;5.32;;;5.20;99.90;;;;;;5070206;28;20522;-62
2024/01/25 03:02:09;;;;;;;31.98;4.85;;;5.20;99.90;;;;;;5070631;28;20162;-62
2024/01/25 03:04:35;;;;;;;36.33;5.97;;;5.10;99.90;;;;;;5070253;28;20429;-61
2024/01/25 03:07:00;;;;;;;38.17;5.70;;;5.10;99.90;;;;;;5070492;28;20036;-62
2024/01/25 03:09:27;;;;;;;32.08;5.72;;;5.10;99.90;;;;;;5070074;28;20049;-62
2024/01/25 03:11:52;;;;;;;36.88;5.68;;;5.00;99.90;;;;;;5070323;28;20072;-62
2024/01/25 03:14:18;;;;;;;37.47;5.18;;;5.00;99.90;;;;;;5070282;28;20075;-62
2024/01/25 03:16:44;;;;;;;37.20;5.85;;;5.00;99.90;;;;;;5068704;28;20051;-62
2024/01/25 03:19:11;;;;;;;32.55;4.65;;;4.90;99.90;;;;;;5069523;28;20075;-62
2024/01/25 03:21:36;;;;;;;35.17;5.60;;;5.00;99.90;;;;;;5068961;28;20407;-61
2024/01/25 03:24:02;;;;;;;39.80;6.38;;;4.90;99.90;;;;;;5070401;28;20040;-62
2024/01/25 03:26:28;;;;;;;36.15;5.57;;;4.90;99.90;;;;;;5071502;28;20047;-62
2024/01/25 03:28:54;;;;;;;38.08;5.65;;;4.90;99.90;;;;;;5073671;28;20036;-61
2024/01/25 03:31:19;;;;;;;35.05;6.72;;;4.90;99.90;;;;;;5072625;28;20048;-61
2024/01/25 03:33:45;;;;;;;36.75;5.90;;;4.90;99.90;;;;;;5072416;28;20438;-62
2024/01/25 03:36:13;;;;;;;32.70;5.65;;;4.90;99.90;;;;;;5074144;28;20126;-61
2024/01/25 03:38:39;;;;;;;34.25;5.60;;;4.80;99.90;;;;;;5072397;28;20135;-62
2024/01/25 03:41:05;;;;;;;35.53;5.30;;;4.80;99.90;;;;;;5073837;28;20116;-62
2024/01/25 03:43:30;;;;;;;35.88;5.20;;;4.80;99.90;;;;;;5072417;28;20059;-61
2024/01/25 03:45:56;;;;;;;37.20;6.53;;;4.80;99.90;;;;;;5073749;28;20499;-62
2024/01/25 03:48:22;;;;;;;30.73;4.97;;;4.80;99.90;;;;;;5072353;28;20059;-62
2024/01/25 03:50:47;;;;;;;40.28;6.72;;;4.80;99.90;;;;;;5072418;28;20046;-61
2024/01/25 03:53:13;;;;;;;42.83;6.47;;;4.70;99.90;;;;;;5079220;28;20040;-62
2024/01/25 03:55:39;;;;;;;39.70;5.50;;;4.70;99.90;;;;;;5093868;28;20032;-61
2024/01/25 03:58:04;;;;;;;39.65;5.45;;;4.70;99.90;;;;;;5092412;28;20075;-62
2024/01/25 04:00:30;;;;;;;38.13;5.47;;;4.70;99.90;;;;;;5092512;28;20135;-62
2024/01/25 04:02:56;;;;;;;37.40;5.55;;;4.70;99.90;;;;;;5092510;28;20036;-62
2024/01/25 04:05:21;;;;;;;32.95;4.80;;;4.60;99.90;;;;;;5092603;28;20119;-62
2024/01/25 04:07:47;;;;;;;32.47;5.28;;;4.60;99.90;;;;;;5092122;28;20044;-62
2024/01/25 04:10:13;;;;;;;40.55;5.07;;;4.60;99.90;;;;;;5092483;28;20043;-62
2024/01/25 04:12:39;;;;;;;40.47;6.88;;;4.60;99.90;;;;;;5092246;28;20506;-62
2024/01/25 04:15:05;;;;;;;35.42;5.65;;;4.60;99.90;;;;;;5091974;28;20039;-61
2024/01/25 04:17:31;;;;;;;41.55;5.78;;;4.60;99.90;;;;;;5093436;28;20043;-61
2024/01/25 04:19:56;;;;;;;44.05;6.80;;;4.60;99.90;;;;;;5091916;28;20063;-62
2024/01/25 04:22:22;;;;;;;39.28;5.60;;;4.60;99.90;;;;;;5092059;28;20047;-61
2024/01/25 04:24:49;;;;;;;35.38;5.35;;;4.60;99.90;;;;;;5093105;28;20055;-62
2024/01/25 04:27:15;;;;;;;32.15;5.80;;;4.60;99.90;;;;;;5092100;28;20048;-62
2024/01/25 04:29:44;;;;;;;33.70;5.28;;;4.50;99.90;;;;;;5091732;28;20411;-61
2024/01/25 04:32:09;;;;;;;40.70;6.15;;;4.60;99.90;;;;;;5093343;28;20055;-62
2024/01/25 04:34:36;;;;;;;34.80;5.20;;;4.50;99.90;;;;;;5093218;28;20414;-62
2024/01/25 04:37:02;;;;;;;35.90;5.13;;;4.50;99.90;;;;;;5090723;28;20086;-62
2024/01/25 04:39:27;;;;;;;38.47;6.80;;;4.50;99.90;;;;;;5091754;28;20071;-61
2024/01/25 04:41:53;;;;;;;32.53;5.97;;;4.50;99.90;;;;;;5091421;28;20094;-62
2024/01/25 04:44:19;;;;;;;37.72;7.22;;;4.50;99.90;;;;;;5091599;28;20052;-62
2024/01/25 04:46:44;;;;;;;35.97;5.50;;;4.50;99.90;;;;;;5093109;28;20097;-62
2024/01/25 04:49:10;;;;;;;38.97;5.35;;;4.40;99.90;;;;;;5091483;28;20044;-61
2024/01/25 04:51:36;;;;;;;38.78;6.65;;;4.40;99.90;;;;;;5092861;28;20044;-61
2024/01/25 04:54:02;;;;;;;37.45;6.15;;;4.30;99.90;;;;;;5092423;28;20063;-61
2024/01/25 04:56:28;;;;;;;31.17;5.00;;;4.30;99.90;;;;;;5086376;28;20039;-62
2024/01/25 04:58:54;;;;;;;37.28;5.43;;;4.30;99.90;;;;;;5070917;28;20040;-62
2024/01/25 05:01:20;;;;;;;35.25;4.95;;;4.30;99.90;;;;;;5072463;28;20035;-61
2024/01/25 05:03:45;;;;;;;37.78;5.70;;;4.20;99.90;;;;;;5071492;28;20084;-61
2024/01/25 05:06:11;;;;;;;39.40;5.95;;;4.20;99.90;;;;;;5070967;28;20239;-62
2024/01/25 05:08:37;;;;;;;41.38;5.57;;;4.30;99.90;;;;;;5072085;28;20051;-61
2024/01/25 05:11:02;;;;;;;38.95;5.85;;;4.20;99.90;;;;;;5070593;28;20119;-62
2024/01/25 05:13:28;;;;;;;36.38;4.75;;;4.20;99.90;;;;;;5070857;28;20072;-61
2024/01/25 05:15:54;;;;;;;43.53;5.40;;;4.20;99.90;;;;;;5070891;28;20384;-61
2024/01/25 05:18:20;;;;;;;29.35;5.35;;;4.20;99.90;;;;;;5070944;28;20107;-62
2024/01/25 05:20:46;;;;;;;28.33;4.60;;;4.20;99.90;;;;;;5072226;28;20037;-61
2024/01/25 05:23:11;;;;;;;44.10;6.30;;;4.20;99.90;;;;;;5070720;28;20060;-62
2024/01/25 05:25:37;;;;;;;35.80;5.60;;;4.20;99.90;;;;;;5071870;28;20039;-62
2024/01/25 05:28:03;;;;;;;38.95;6.43;;;4.10;99.90;;;;;;5080933;28;20036;-61
2024/01/25 05:30:29;;;;;;;26.77;4.32;;;4.10;99.90;;;;;;5091984;28;20408;-62
2024/01/25 05:32:55;;;;;;;42.25;6.05;;;4.00;99.90;;;;;;5090713;28;20040;-61
2024/01/25 05:35:21;;;;;;;33.70;4.45;;;4.10;99.90;;;;;;5071810;28;20111;-62
2024/01/25 05:37:46;;;;;;;35.42;5.70;;;4.10;99.90;;;;;;5070550;28;20398;-61
2024/01/25 05:40:12;;;;;;;48.83;5.85;;;4.10;99.90;;;;;;5071148;28;20044;-62
2024/01/25 05:42:40;;;;;;;42.38;5.85;;;4.10;99.90;;;;;;5070715;28;20055;-61
2024/01/25 05:45:06;;;;;;;39.55;5.85;;;4.10;99.90;;;;;;5069976;28;20070;-62
2024/01/25 05:47:32;;;;;;;45.42;6.32;;;4.10;99.90;;;;;;5071529;28;20403;-62
2024/01/25 05:49:57;;;;;;;44.67;5.22;;;4.10;99.90;;;;;;5071138;28;20048;-61
2024/01/25 05:52:24;;;;;;;26.38;4.22;;;4.10;99.90;;;;;;5071138;28;20024;-62
2024/01/25 05:54:50;;;;;;;26.27;5.38;;;4.10;99.90;;;;;;5071712;28;20121;-62
2024/01/25 05:57:16;;;;;;;39.38;6.15;;;4.10;99.90;;;;;;5071152;28;20047;-61
2024/01/25 05:59:42;;;;;;;31.92;5.38;;;4.00;99.90;;;;;;5070287;28;20056;-61
2024/01/25 06:02:08;;;;;;;33.10;5.40;;;4.00;99.90;;;;;;5071110;28;20036;-61
2024/01/25 06:04:34;;;;;;;35.03;5.10;;;4.00;99.90;;;;;;5071181;28;20040;-62
2024/01/25 06:07:00;;;;;;;25.05;4.50;;;3.90;99.90;;;;;;5069866;28;20063;-62
2024/01/25 06:09:26;;;;;;;30.50;4.22;;;3.90;99.90;;;;;;5073603;28;20082;-61
2024/01/25 06:11:51;;;;;;;33.17;5.10;;;3.90;99.90;;;;;;5090158;28;20050;-62
2024/01/25 06:14:17;;;;;;;38.35;5.57;;;3.90;99.90;;;;;;5091337;28;20495;-62
2024/01/25 06:16:44;;;;;;;35.22;5.25;;;3.90;99.90;;;;;;5089957;28;20039;-61
2024/01/25 06:19:10;;;;;;;32.40;5.22;;;3.90;99.90;;;;;;5089680;28;20035;-62
2024/01/25 06:21:37;;;;;;;37.42;5.03;;;3.80;99.90;;;;;;5091174;28;20032;-62
2024/01/25 06:24:04;;;;;;;35.47;4.75;;;3.80;99.90;;;;;;5091114;28;20048;-62
2024/01/25 06:26:30;;;;;;;53.30;6.15;;;3.70;99.90;;;;;;5091356;28;20051;-61
2024/01/25 06:28:56;;;;;;;38.53;5.80;;;3.70;99.90;;;;;;5090962;28;20666;-62
2024/01/25 06:31:22;;;;;;;41.20;5.43;;;3.70;99.90;;;;;;5090958;28;20494;-62
2024/01/25 06:33:50;;;;;;;30.50;4.88;;;3.60;99.90;;;;;;5091183;28;20028;-61
2024/01/25 06:36:16;;;;;;;23.38;5.03;;;3.60;99.90;;;;;;5071885;28;20037;-61
2024/01/25 06:38:42;;;;;;;25.00;5.30;;;3.70;99.90;;;;;;5069452;28;20032;-61
2024/01/25 06:41:09;;;;;;;28.83;3.85;;;3.60;99.90;;;;;;5070844;28;20507;-62
2024/01/25 06:43:34;;;;;;;24.00;3.97;;;3.60;99.90;;;;;;5069192;28;20076;-61
2024/01/25 06:46:00;;;;;;;24.02;4.18;;;3.60;99.90;;;;;;5070570;28;20499;-61
2024/01/25 06:48:26;;;;;;;21.52;4.20;;;3.60;99.90;;;;;;5069302;28;20042;-62
2024/01/25 06:50:52;;;;;;;24.63;3.90;;;3.60;99.90;;;;;;5070740;28;20082;-61
2024/01/25 06:53:18;;;;;;;29.83;4.95;;;3.50;99.90;;;;;;5070299;28;20033;-61
2024/01/25 06:55:44;;;;;;;28.45;4.38;;;3.50;99.90;;;;;;5070556;28;20086;-61
2024/01/25 06:58:09;;;;;;;31.73;4.65;;;3.50;99.90;;;;;;5069154;28;20029;-61
2024/01/25 07:00:35;;;;;;;28.52;4.57;;;3.60;99.90;;;;;;5071338;28;20059;-61
2024/01/25 07:03:00;;;;;;;32.90;5.93;;;3.60;99.90;;;;;;5073440;28;20377;-62
2024/01/25 07:05:26;;;;;;;26.27;4.93;;;3.50;99.90;;;;;;5073029;28;20072;-61
2024/01/25 07:07:53;;;;;;;26.45;4.45;;;3.50;99.90;;;;;;5074709;28;20398;-61
2024/01/25 07:10:18;;;;;;;20.88;3.88;;;3.50;99.90;;;;;;5056451;28;20093;-61
2024/01/25 07:12:44;;;;;;;26.67;4.55;;;3.50;99.90;;;;;;5074617;28;20037;-62
2024/01/25 07:15:10;;;;;;;28.40;4.65;;;3.50;99.90;;;;;;5073092;28;20068;-62
2024/01/25 07:17:35;;;;;;;28.42;4.28;;;3.40;99.90;;;;;;5072874;28;20040;-62
2024/01/25 07:20:01;;;;;;;32.38;5.28;;;3.40;99.90;;;;;;5073040;28;20474;-61
2024/01/25 07:22:27;;;;;;;34.13;5.03;;;3.40;99.90;;;;;;5072709;28;20495;-61
2024/01/25 07:24:52;;;;;;;31.98;4.97;;;3.50;99.90;;;;;;5074353;28;20047;-61
2024/01/25 07:27:18;;;;;;;33.85;5.35;;;3.50;99.90;;;;;;5073142;28;20044;-61
2024/01/25 07:29:45;;;;;;;45.55;7.28;;;3.50;99.90;;;;;;5072195;28;20170;-62
2024/01/25 07:32:11;;;;;;;26.83;6.10;;;3.50;99.90;;;;;;5074204;28;20047;-61
2024/01/25 07:34:37;;;;;;;27.23;4.97;;;3.40;99.90;;;;;;5073772;28;20081;-62
2024/01/25 07:37:03;;;;;;;39.22;13.60;;;3.40;99.90;;;;;;5073930;28;20033;-62
2024/01/25 07:39:29;;;;;;;45.85;15.55;;;3.50;99.90;;;;;;5072410;28;20102;-62
2024/01/25 07:41:54;;;;;;;54.22;22.48;;;3.40;99.90;;;;;;5074062;28;20041;-62
2024/01/25 07:44:20;;;;;;;48.85;13.95;;;3.40;99.90;;;;;;5072766;28;20045;-61
2024/01/25 07:46:46;;;;;;;46.40;10.75;;;3.50;99.90;;;;;;5073571;28;20044;-61
2024/01/25 07:49:11;;;;;;;28.65;6.22;;;3.40;99.90;;;;;;5055752;28;20054;-62
2024/01/25 07:51:37;;;;;;;37.83;6.05;;;3.40;99.90;;;;;;5073373;28;20047;-62
2024/01/25 07:54:02;;;;;;;47.08;7.88;;;3.40;99.90;;;;;;5085651;28;20069;-62
2024/01/25 07:56:29;;;;;;;38.00;5.85;;;3.40;99.90;;;;;;5094130;28;20047;-61
2024/01/25 07:58:55;;;;;;;39.10;6.40;;;3.40;99.90;;;;;;5081961;28;20518;-61
2024/01/25 08:01:21;;;;;;;34.92;4.78;;;3.50;99.90;;;;;;5072266;28;20052;-61
2024/01/25 08:03:47;;;;;;;38.13;5.25;;;3.40;99.90;;;;;;5073309;28;20055;-62
2024/01/25 08:06:13;;;;;;;44.35;6.15;;;3.40;99.90;;;;;;5072164;28;20075;-62
2024/01/25 08:08:39;;;;;;;33.35;5.20;;;3.50;99.90;;;;;;5055231;28;20090;-61
2024/01/25 08:11:05;;;;;;;49.03;5.60;;;3.50;99.90;;;;;;5085326;28;20486;-61
2024/01/25 08:13:31;;;;;;;44.33;7.50;;;3.50;99.90;;;;;;5092216;28;20040;-62
2024/01/25 08:15:57;;;;;;;48.33;5.95;;;3.50;99.90;;;;;;5093483;28;20078;-62
2024/01/25 08:18:23;;;;;;;32.10;6.00;;;3.50;99.90;;;;;;5093497;28;20052;-61
2024/01/25 08:20:50;;;;;;;42.10;5.78;;;3.60;99.90;;;;;;5091988;28;20036;-61
2024/01/25 08:23:16;;;;;;;30.92;4.97;;;3.60;99.90;;;;;;5091710;28;20040;-61
2024/01/25 08:25:41;;;;;;;33.75;5.00;;;3.60;99.90;;;;;;5093087;28;20050;-62
2024/01/25 08:28:07;;;;;;;41.70;6.43;;;3.70;99.90;;;;;;5075190;28;20050;-62
2024/01/25 08:30:33;;;;;;;39.53;7.32;;;3.70;99.90;;;;;;5093063;28;20059;-62
2024/01/25 08:33:00;;;;;;;42.67;7.30;;;3.80;99.90;;;;;;5093007;28;20472;-62
2024/01/25 08:35:25;;;;;;;45.78;6.93;;;3.80;99.90;;;;;;5092068;28;20052;-62
2024/01/25 08:37:51;;;;;;;45.80;5.80;;;3.80;99.90;;;;;;5091557;28;20528;-61
2024/01/25 08:40:17;;;;;;;35.50;5.55;;;3.90;99.90;;;;;;5093253;28;20529;-61
2024/01/25 08:42:43;;;;;;;43.75;7.65;;;3.90;99.90;;;;;;5091562;28;20055;-61
2024/01/25 08:45:08;;;;;;;40.45;7.55;;;3.90;99.90;;;;;;5093099;28;20479;-61
2024/01/25 08:47:35;;;;;;;39.60;6.57;;;3.90;99.90;;;;;;5075544;28;20036;-61
2024/01/25 08:50:01;;;;;;;37.63;6.00;;;3.90;99.90;;;;;;5071133;28;20043;-62
2024/01/25 08:52:27;;;;;;;38.33;5.80;;;3.90;99.90;;;;;;5072810;28;20055;-62
2024/01/25 08:54:52;;;;;;;40.00;7.57;;;4.00;99.90;;;;;;5071005;28;20041;-60
2024/01/25 08:57:18;;;;;;;42.92;6.50;;;4.00;99.90;;;;;;5071578;28;20028;-62
2024/01/25 08:59:44;;;;;;;40.97;6.03;;;4.00;99.90;;;;;;5072346;28;20044;-61
2024/01/25 09:02:10;;;;;;;32.22;5.60;;;4.10;99.90;;;;;;5071522;28;20044;-61
2024/01/25 09:04:36;;;;;;;43.35;8.48;;;4.20;99.90;;;;;;5072260;28;20127;-61
2024/01/25 09:07:02;;;;;;;35.60;6.32;;;4.20;99.90;;;;;;5071211;28;20400;-61
2024/01/25 09:09:27;;;;;;;39.30;6.47;;;4.30;99.90;;;;;;5072343;28;20047;-61
2024/01/25 09:11:53;;;;;;;41.72;7.28;;;4.30;99.90;;;;;;5072014;28;20041;-62
2024/01/25 09:14:19;;;;;;;35.92;7.07;;;4.30;99.90;;;;;;5071170;28;20492;-62
2024/01/25 09:16:45;;;;;;;40.85;7.15;;;4.40;99.90;;;;;;5071001;28;20048;-61
2024/01/25 09:19:10;;;;;;;42.42;6.78;;;4.50;99.90;;;;;;5071729;28;20123;-61
2024/01/25 09:21:39;;;;;;;41.75;6.10;;;4.50;99.90;;;;;;5070799;28;20040;-61
2024/01/25 09:24:05;;;;;;;37.55;7.20;;;4.60;99.90;;;;;;5069848;28;20048;-61
2024/01/25 09:26:31;;;;;;;43.70;6.72;;;4.70;99.90;;;;;;5072223;28;20040;-61
2024/01/25 09:28:56;;;;;;;42.80;6.70;;;4.80;99.90;;;;;;5071613;28;20043;-61
2024/01/25 09:31:22;;;;;;;39.60;7.28;;;4.80;99.90;;;;;;5070343;28;20076;-62
2024/01/25 09:33:48;;;;;;;40.00;5.88;;;4.90;99.90;;;;;;5071767;28;20112;-61
2024/01/25 09:36:13;;;;;;;41.05;6.95;;;4.90;99.90;;;;;;5070557;28;20457;-62
2024/01/25 09:38:39;;;;;;;32.83;6.95;;;5.00;99.90;;;;;;5087020;28;20052;-62
2024/01/25 09:41:04;;;;;;;29.55;6.20;;;5.00;99.90;;;;;;5091928;28;20039;-61
2024/01/25 09:43:30;;;;;;;40.50;6.35;;;5.10;99.90;;;;;;5092072;28;20040;-62
2024/01/25 09:45:56;;;;;;;30.38;5.65;;;5.10;99.90;;;;;;5091600;28;20509;-62
2024/01/25 09:48:22;;;;;;;38.15;6.50;;;5.20;99.90;;;;;;5091546;28;20036;-61
2024/01/25 09:50:48;;;;;;;30.85;4.93;;;5.20;99.90;;;;;;5090667;28;20160;-62
2024/01/25 09:53:24;;;;;;;35.20;6.10;;;5.30;99.90;;;;;;5091446;28;20082;-61
2024/01/25 09:56:02;;;;;;;39.70;6.93;;;5.40;99.90;;;;;;5091788;28;20097;-61
2024/01/25 09:58:42;;;;;;;24.42;5.95;;;5.40;99.90;;;;;;5064107;28;20380;-61
2024/01/25 10:01:12;;;;;;;37.75;6.90;;;5.50;99.90;;;;;;5069610;28;20037;-61
2024/01/25 10:03:42;;;;;;;41.22;6.80;;;5.60;99.90;;;;;;5069989;28;20399;-62
2024/01/25 10:06:08;;;;;;;27.83;5.75;;;5.60;99.90;;;;;;5070129;28;20499;-62
2024/01/25 10:08:34;;;;;;;40.97;5.40;;;5.60;99.90;;;;;;5070126;28;20044;-62
2024/01/25 10:11:00;;;;;;;33.28;6.13;;;5.70;99.90;;;;;;5070876;28;20033;-61
2024/01/25 10:13:28;;;;;;;36.55;6.50;;;5.80;99.90;;;;;;5071237;28;20399;-62
2024/01/25 10:15:56;;;;;;;29.83;6.28;;;5.90;99.90;;;;;;5071029;28;20050;-62
2024/01/25 10:18:23;;;;;;;39.65;6.38;;;6.00;99.90;;;;;;5069454;28;20041;-61
2024/01/25 10:20:49;;;;;;;32.60;5.35;;;6.10;99.90;;;;;;5071186;28;20040;-62
2024/01/25 10:23:14;;;;;;;33.92;6.15;;;6.10;99.90;;;;;;5070688;28;20028;-62
2024/01/25 10:25:40;;;;;;;27.33;5.68;;;6.20;99.90;;;;;;5069788;28;20025;-62
2024/01/25 10:28:07;;;;;;;29.42;6.65;;;6.30;99.90;;;;;;5052630;28;20072;-62
2024/01/25 10:30:34;;;;;;;32.67;7.00;;;6.40;99.90;;;;;;5069412;28;20120;-61
2024/01/25 10:33:01;;;;;;;34.42;6.05;;;6.60;99.90;;;;;;5069483;28;20040;-62
2024/01/25 10:35:27;;;;;;;32.70;6.35;;;6.70;99.90;;;;;;5068357;28;20037;-61
2024/01/25 10:37:54;;;;;;;39.78;6.57;;;6.70;99.90;;;;;;5069374;28;20450;-62
2024/01/25 10:40:20;;;;;;;37.08;7.20;;;6.70;99.90;;;;;;5069354;28;20383;-62
2024/01/25 10:42:47;;;;;;;37.45;6.78;;;6.80;99.90;;;;;;5070913;28;20046;-62
2024/01/25 10:45:13;;;;;;;31.50;6.47;;;6.90;99.90;;;;;;5069214;28;20082;-61
2024/01/25 10:47:40;;;;;;;35.80;5.95;;;7.00;99.90;;;;;;5069581;28;20044;-62
2024/01/25 10:50:11;;;;;;;35.45;6.10;;;7.10;99.90;;;;;;5069143;28;20059;-62
2024/01/25 10:52:38;;;;;;;34.13;6.25;;;7.20;99.90;;;;;;5070739;28;20076;-62
2024/01/25 10:55:05;;;;;;;28.30;7.65;;;7.50;99.90;;;;;;5070492;28;20040;-62
2024/01/25 10:57:37;;;;;;;26.90;6.20;;;7.60;99.90;;;;;;5070584;28;20028;-62
2024/01/25 11:00:17;;;;;;;25.70;5.38;;;7.80;99.90;;;;;;5070601;28;20533;-62
2024/01/25 11:02:44;;;;;;;33.78;7.28;;;7.90;99.90;;;;;;5052209;28;20052;-61
2024/01/25 11:05:14;;;;;;;30.90;5.93;;;8.10;99.90;;;;;;5070422;28;20044;-62
2024/01/25 11:07:48;;;;;;;28.30;5.95;;;8.00;99.90;;;;;;5069213;28;20036;-61
2024/01/25 11:10:19;;;;;;;32.42;6.72;;;7.90;99.90;;;;;;5068813;28;20037;-61
2024/01/25 11:12:59;;;;;;;31.10;6.13;;;7.90;99.90;;;;;;5068701;28;20052;-61
2024/01/25 11:15:36;;;;;;;37.45;7.03;;;8.00;99.90;;;;;;5068875;28;20045;-62
2024/01/25 11:18:03;;;;;;;33.70;7.60;;;8.10;99.90;;;;;;5052193;28;20040;-61
2024/01/25 11:20:30;;;;;;;27.60;6.00;;;8.10;99.90;;;;;;5068777;28;20055;-62
2024/01/25 11:23:01;;;;;;;31.80;6.53;;;8.30;99.90;;;;;;5070372;28;20028;-61
2024/01/25 11:25:31;;;;;;;31.40;7.13;;;8.50;99.90;;;;;;5070113;28;20048;-62
2024/01/25 11:27:58;;;;;;;28.85;6.18;;;8.60;99.90;;;;;;5083530;28;20054;-62
2024/01/25 11:30:25;;;;;;;32.00;6.57;;;8.70;99.90;;;;;;5088599;28;20080;-61
2024/01/25 11:32:50;;;;;;;31.17;7.13;;;8.80;99.90;;;;;;5089162;28;20044;-61
2024/01/25 11:35:16;;;;;;;32.40;7.20;;;8.90;99.90;;;;;;5088886;28;20055;-61
2024/01/25 11:37:51;;;;;;;34.30;7.70;;;8.80;99.90;;;;;;5089196;28;20475;-62
2024/01/25 11:40:16;;;;;;;33.80;7.00;;;8.80;99.90;;;;;;5088895;28;20044;-62
2024/01/25 11:42:44;;;;;;;31.63;7.68;;;8.90;99.90;;;;;;5088572;28;20135;-62
2024/01/25 11:45:11;;;;;;;38.22;7.40;;;9.10;99.90;;;;;;5090421;28;20032;-61
2024/01/25 11:47:38;;;;;;;32.72;7.50;;;9.10;99.90;;;;;;5092810;28;20035;-62
2024/01/25 11:50:05;;;;;;;23.70;6.00;;;9.00;99.90;;;;;;5094075;28;20410;-62
2024/01/25 11:52:34;;;;;;;31.98;7.18;;;8.90;99.90;;;;;;5092694;28;20043;-61
2024/01/25 11:55:06;;;;;;;26.88;7.13;;;8.90;99.90;;;;;;5092950;28;20517;-62
2024/01/25 11:57:37;;;;;;;29.52;6.43;;;8.90;99.90;;;;;;5092270;28;20040;-61
2024/01/25 12:00:06;;;;;;;27.80;6.60;;;8.80;99.90;;;;;;5092545;28;20040;-62
2024/01/25 12:02:32;;;;;;;32.50;6.43;;;8.80;99.90;;;;;;5075296;28;20055;-61
2024/01/25 12:04:58;;;;;;;31.50;6.28;;;9.00;99.90;;;;;;5092470;28;20051;-62
2024/01/25 12:07:23;;;;;;;29.75;7.10;;;9.20;99.90;;;;;;5093503;28;20050;-62
2024/01/25 12:10:03;;;;;;;28.58;6.47;;;9.20;99.90;;;;;;5092159;28;20505;-62
2024/01/25 12:12:29;;;;;;;32.13;5.82;;;9.20;99.90;;;;;;5093434;28;20040;-62
2024/01/25 12:14:59;;;;;;;30.88;6.50;;;9.10;99.90;;;;;;5092472;28;20089;-62
2024/01/25 12:17:30;;;;;;;30.65;7.53;;;8.90;99.90;;;;;;5074870;28;20055;-62
2024/01/25 12:19:56;;;;;;;32.65;7.07;;;8.80;99.90;;;;;;5092441;28;20497;-62
2024/01/25 12:22:22;;;;;;;29.50;6.57;;;8.60;99.90;;;;;;5092234;28;20056;-62
2024/01/25 12:24:49;;;;;;;31.35;5.90;;;8.50;99.90;;;;;;5092086;28;20055;-62
2024/01/25 12:27:17;;;;;;;28.13;6.25;;;8.40;99.90;;;;;;5092189;28;20036;-62
2024/01/25 12:29:43;;;;;;;34.55;6.88;;;8.30;99.90;;;;;;5093155;28;20147;-62
2024/01/25 12:32:09;;;;;;;30.83;6.18;;;8.40;99.90;;;;;;5091938;28;20127;-61
2024/01/25 12:34:37;;;;;;;32.90;6.32;;;8.50;99.90;;;;;;5093455;28;20036;-61
2024/01/25 12:37:03;;;;;;;32.95;6.80;;;8.70;99.90;;;;;;5093043;28;20035;-61
2024/01/25 12:39:28;;;;;;;34.38;7.00;;;9.20;99.90;;;;;;5091935;28;20115;-62
2024/01/25 12:41:54;;;;;;;25.75;5.85;;;9.90;99.90;;;;;;5092802;28;20115;-62